KGPT/GPT METAR and TAF weather

Enter ICAO airport designator
Station Type Date Time Source
KGPT METAR 2020/09/22 07:53 UTC NOAA

KGPT 220753Z AUTO 07010KT 10SM FEW027 OVC120 21/16 A3007 RMK AO2 SLP181 T02060161


Station Type Date Time Source
KGPT Decoded METAR 2020/09/22 07:53 UTC NOAA

GULFPORT-BILOXI REG AIRPORT , MS, United States (KGPT) 30-25N 089-05W 14M
Sep 22, 2020 - 03:53 AM EDT / 2020.09.22 0753 UTC
Wind: from the ENE (070 degrees) at 12 MPH (10 KT):0
Visibility: 10 mile(s):0
Sky conditions: overcast
Temperature: 69.1 F (20.6 C)
Dew Point: 61.0 F (16.1 C)
Relative Humidity: 75%
Pressure (altimeter): 30.07 in. Hg (1018 hPa)
ob: KGPT 220753Z AUTO 07010KT 10SM FEW027 OVC120 21/16 A3007 RMK AO2 SLP181 T02060161
cycle: 8

Station Type Date Time Source
KGPT TAF 2020/09/22 06:22 UTC NOAA

TAF KGPT 220520Z 2206/2306 08012KT P6SM VCSH OVC025
FM221200 09014G21KT 5SM -RA BR OVC008
FM221800 09014G21KT 2SM RA BR OVC005

Example: see airport list